Anza Borrego Desert State Park, California Weather observations

Data are for 10 minute period ending at time listed.
 Day   Time   Solar   Ave.   Ave.  Ave.  Vector  Max.   Baro.   Total    
  of    of     Rad.   Air    Rel.  Wind   Wind   Wind  Press.  Precip.   
Year   Day            Temp.  Hum.  Speed  Dir.   Gust                    
2021   (PST)  Kw/m2    F      %     mph   deg.    mph    mb.     in.     
-------------------------------------------------------------------------
 290    0:00   0.00   70.2    13    3.9   275     6.9   985.2    0.00 
 290    0:10   0.00   69.0    14    3.0   288     4.4   985.2    0.00 
 290    0:20   0.00   68.8    14    3.4   271     7.3   985.1    0.00 
 290    0:30   0.00   67.2    15    2.7   299     4.6   985.1    0.00 
 290    0:40   0.00   67.1    15    2.3   258     4.9   985.1    0.00 
 290    0:50   0.00   66.2    15    2.6   271     5.1   985.0    0.00 
 290    1:00   0.00   66.0    16    1.7   290     3.5   985.0    0.00 
 290    1:10   0.00   67.3    15    2.4   272     4.5   984.9    0.00 
 290    1:20   0.00   67.1    15    1.9   271     3.7   984.9    0.00 
 290    1:30   0.00   68.1    15    1.8   282     4.7   984.7    0.00 
 290    1:40   0.00   68.6    14    1.7   316     4.0   984.6    0.00 
 290    1:50   0.00   67.0    15    1.9   259     2.8   984.6    0.00 
 290    2:00   0.00   65.3    16    3.1   206     5.7   984.4    0.00 
 290    2:10   0.00   64.7    17    2.9   248     4.2   984.4    0.00 
 290    2:20   0.00   63.6    17    2.6   236     5.1   984.3    0.00 
 290    2:30   0.00   64.9    16    3.9   201     5.3   984.2    0.00 
 290    2:40   0.00   65.7    16    3.8   246     5.0   984.1    0.00 
 290    2:50   0.00   67.3    15    3.2   229     5.0   984.0    0.00 
 290    3:00   0.00   65.9    16    2.8   264     5.0   984.0    0.00 
 290    3:10   0.00   65.4    16    3.3   218     5.0   984.0    0.00 
 290    3:20   0.00   66.3    15    2.7   254     4.6   983.9    0.00 
 290    3:30   0.00   66.4    15    2.6   239     3.9   983.9    0.00 
 290    3:40   0.00   66.2    15    2.5   319     3.9   984.0    0.00 
 290    3:50   0.00   65.9    16    2.6   285     3.5   984.0    0.00 
 290    4:00   0.00   63.4    17    2.2   250     4.4   983.9    0.00 
 290    4:10   0.00   66.1    15    1.7   259     2.6   983.9    0.00 
 290    4:20   0.00   64.1    17    1.5   297     2.7   983.8    0.00 
 290    4:30   0.00   65.5    16    1.4   349     2.7   983.8    0.00 
 290    4:40   0.00   65.3    16    2.2   333     3.7   983.8    0.00 
 290    4:50   0.00   65.0    16    3.2   196     4.2   983.9    0.00 
 290    5:00   0.00   64.1    17    1.9   218     2.5   983.9    0.00 
 290    5:10   0.00   63.4    17    3.2   251     5.5   983.8    0.00 
 290    5:20   0.00   64.1    17    4.6   245     5.2   983.8    0.00 
 290    5:30   0.00   62.3    18    3.6   261     5.0   983.8    0.00 
 290    5:40   0.00   62.6    17    3.0   225     5.0   983.8    0.00 
 290    5:50   0.00   62.9    17    3.5   232     4.7   983.9    0.00 
 290    6:00   0.00   62.4    17    3.0   260     5.0   983.9    0.00 
 290    6:10   0.01   62.9    17    2.8   209     4.4   984.0    0.00 
 290    6:20   0.03   64.2    16    3.6   196     4.4   984.0    0.00 
 290    6:30   0.06   64.7    16    2.3   205     3.4   984.1    0.00 
 290    6:40   0.07   64.7    16    2.9   211     5.0   984.1    0.00 
 290    6:50   0.07   67.2    15    2.6   236     3.7   984.2    0.00 
 290    7:00   0.17   67.7    15    1.9   301     3.0   984.4    0.00 
 290    7:10   0.26   69.4    14    1.3   342     2.6   984.6    0.00 
 290    7:20   0.28   71.6    13    1.4   327     3.1   984.8    0.00 
 290    7:30   0.29   72.3    13    2.4   342     3.9   984.9    0.00 
 290    7:40   0.30   73.5    12    1.0    52     2.3   985.0    0.00 
 290    7:50   0.38   76.3    11    0.1   247     0.8   984.9    0.00 
 290    8:00   0.42   77.7    11    0.9    32     2.0   985.0    0.00 
 290    8:10   0.46   77.1    11    2.0    26     3.9   985.0    0.00 
 290    8:20   0.49   76.7    11    2.0    52     3.4   985.1    0.00 
 290    8:30   0.53   78.0    11    0.8   106     2.1   985.1    0.00 
 290    8:40   0.56   80.2    10    1.2    49     3.2   985.1    0.00 
 290    8:50   0.59   79.5    10    2.0    66     4.2   985.1    0.00 
 290    9:00   0.62   80.0    10    1.9    72     3.1   985.1    0.00 
 290    9:10   0.66   80.9    10    1.3    62     3.7   985.1    0.00 
 290    9:20   0.69   82.3     9    1.1   100     2.8   985.1    0.00 
 290    9:30   0.72   82.6     9    2.0    45     3.8   984.9    0.00 
 290    9:40   0.68   82.6     9    1.9    64     3.7   984.9    0.00 
 290    9:50   0.68   82.6     9    2.7    44     5.6   984.8    0.00 
 290   10:00   0.75   83.1     8    3.1    34     5.8   984.6    0.00 
 290   10:10   0.79   83.5     8    3.0    23     5.5   984.5    0.00 
 290   10:20   0.80   83.6     8    3.3    12     6.0   984.5    0.00 
 290   10:30   0.82   84.0     8    2.8    81     5.3   984.4    0.00 
 290   10:40   0.83   84.4     8    4.0    92     6.7   984.4    0.00 
 290   10:50   0.84   84.1     8    4.4    97     7.5   984.3    0.00 
 290   11:00   0.84   84.6     8    3.2    80     6.9   984.2    0.00 
 290   11:10   0.85   85.1     8    4.2    96     8.3   984.1    0.00 
 290   11:20   0.85   85.8     7    2.9    83     6.1   983.9    0.00 
 290   11:30   0.85   86.0     7    2.0    62     5.4   983.8    0.00 
 290   11:40   0.86   87.3     7    2.6   207     5.8   983.7    0.00 
 290   11:50   0.86   87.4     7    5.8   216    15.8   983.6    0.00 
 290   12:00   0.85   88.0     6   12.6   243    19.2   983.4    0.00 
 290   12:10   0.85   87.3     6   14.3   268    21.0   983.2    0.00 
 290   12:20   0.84   86.8     7   13.5   262    23.5   983.1    0.00 
 290   12:30   0.83   87.0     6   16.5   241    26.2   983.0    0.00 
 290   12:40   0.79   86.7     7   16.9   247    25.8   982.9    0.00 
 290   12:50   0.81   86.8     7   16.7   240    27.0   982.8    0.00 
 290   13:00   0.80   86.8     7   18.3   240    23.4   982.7    0.00 
 290   13:10   0.78   86.5     7   19.2   238    25.9   982.6    0.00 
 290   13:20   0.76   86.4     7   18.5   238    24.8   982.5    0.00 
 290   13:30   0.74   86.5     7   16.1   232    24.8   982.4    0.00 
 290   13:40   0.71   86.5     7   18.9   232    24.9   982.3    0.00 
 290   13:50   0.69   86.1     7   17.1   236    24.9   982.2    0.00 
 290   14:00   0.66   86.1     7   18.7   236    25.7   982.2    0.00 
 290   14:10   0.63   85.8     7   18.8   239    24.4   982.3    0.00 
 290   14:20   0.60   85.6     7   16.9   230    23.5   982.3    0.00 
 290   14:30   0.57   85.4     7   17.0   239    25.1   982.4    0.00 
 290   14:40   0.54   84.7     8   18.5   240    27.0   982.4    0.00 
 290   14:50   0.50   84.3     8   17.4   235    24.0   982.4    0.00 
 290   15:00   0.47   84.1     8   16.5   228    23.8   982.4    0.00 
 290   15:10   0.43   83.5     9   18.1   230    25.9   982.2    0.00 
 290   15:20   0.40   83.3     9   17.8   230    29.0   982.1    0.00 
 290   15:30   0.36   83.3     9   11.7   249    24.6   982.0    0.00 
 290   15:40   0.32   83.3    10   13.6   255    26.6   981.8    0.00 
 290   15:50   0.28   82.1    12   18.0   262    34.4   981.7    0.00 
 290   16:00   0.24   81.6    12   17.8   255    28.6   981.6    0.00 
 290   16:10   0.20   80.9    12   18.3   253    30.4   981.5    0.00 
 290   16:20   0.13   80.2    13   17.6   254    28.7   981.5    0.00 
 290   16:30   0.02   79.4    13   14.7   237    33.0   981.6    0.00 
 290   16:40   0.02   78.7    15   18.9   249    34.3   981.5    0.00 
 290   16:50   0.02   78.2    15   16.1   259    25.4   981.5    0.00 
 290   17:00   0.01   78.0    15   16.8   276    27.5   981.5    0.00 
 290   17:10   0.01   77.5    17   15.6   273    30.0   981.4    0.00 
 290   17:20   0.00   76.9    18   19.8   263    30.3   981.5    0.00 
 290   17:30   0.00   76.2    20   19.7   260    32.7   981.6    0.00 
 290   17:40   0.00   75.9    19   17.1   260    26.5   981.8    0.00 
 290   17:50   0.00   75.6    18   11.5   272    22.9   982.0    0.00 
 290   18:00   0.00   76.1    14   11.2   273    19.2   982.1    0.00 
 290   18:10   0.00   76.6    16    7.0   274    21.9   982.2    0.00 
 290   18:20   0.00   74.7    19    3.7   340     8.6   982.3    0.00 
 290   18:30   0.00   73.9    19    2.7   204     6.9   982.4    0.00 
 290   18:40   0.00   73.7    20    3.8   280     6.9   982.6    0.00 
 290   18:50   0.00   73.7    21    7.5   306    13.2   982.7    0.00 
 290   19:00   0.00   73.4    20    8.8   296    14.9   982.7    0.00 
 290   19:10   0.00   73.5    19    5.9   295    11.2   982.7    0.00 
 290   19:20   0.00   73.3    18    5.7   311    11.4   982.7    0.00 
 290   19:30   0.00   72.1    18    4.4   270     7.7   982.9    0.00 
 290   19:40   0.00   72.7    16    5.3   257     9.1   982.8    0.00 
 290   19:50   0.00   72.4    16    4.4   304     6.8   982.8    0.00 
 290   20:00   0.00   71.2    16    2.8   231     6.9   982.8    0.00 
 290   20:10   0.00   70.2    17    2.6   165     6.1   982.7    0.00 
 290   20:20   0.00   69.1    19    3.4   206     8.2   982.5    0.00 
 290   20:30   0.00   67.2    19    2.1   157     4.7   982.4    0.00 
 290   20:40   0.00   67.7    19    2.3   341     4.5   982.4    0.00 
 290   20:50   0.00   67.9    19    2.1    44     4.8   982.6    0.00 
 290   21:00   0.00   68.5    19    4.3   120     8.4   982.3    0.00 
 290   21:10   0.00   69.1    18    5.3    82     9.8   982.3    0.00 
 290   21:20   0.00   68.8    18    3.9   225     7.2   982.5    0.00 
 290   21:30   0.00   68.7    18    5.2   188     8.0   982.5    0.00 
 290   21:40   0.00   67.3    18    5.1   184     8.9   982.5    0.00 
 290   21:50   0.00   67.2    18    3.2   268     6.7   982.6    0.00 
 290   22:00   0.00   69.1    16    1.0    36     2.8   982.7    0.00 
 290   22:10   0.00   66.9    18    3.7     5     5.3   982.8    0.00 
 290   22:20   0.00   65.6    18    1.8   144     4.5   982.7    0.00 
 290   22:30   0.00   64.3    19    5.4   214     9.4   982.6    0.00 
 290   22:40   0.00   65.7    18    3.1   170     8.7   982.6    0.00 
 290   22:50   0.00   67.3    17    3.5   166     6.8   982.5    0.00 
 290   23:00   0.00   66.2    18    2.6   245     4.9   982.6    0.00 
 290   23:10   0.00   67.9    17    2.4   341     5.8   982.6    0.00 
 290   23:20   0.00   67.0    18    3.8   324     7.2   982.6    0.00 

Return to Anza Borrego Desert State Park graphs page.


Western Regional Climate Center,wrcc@dri.edu